sensor_id;sensor_type;location;lat;lon;timestamp;P1;durP1;ratioP1;P2;durP2;ratioP2
75340;SDS011;64931;47.562;18.920;2023-12-14T00:00:13;8.30;;;5.60;;
75340;SDS011;64931;47.562;18.920;2023-12-14T00:02:39;7.90;;;4.20;;
75340;SDS011;64931;47.562;18.920;2023-12-14T00:05:05;7.60;;;4.60;;
75340;SDS011;64931;47.562;18.920;2023-12-14T00:07:30;9.70;;;5.50;;
75340;SDS011;64931;47.562;18.920;2023-12-14T00:09:56;7.60;;;4.90;;
75340;SDS011;64931;47.562;18.920;2023-12-14T00:12:21;8.50;;;4.90;;
75340;SDS011;64931;47.562;18.920;2023-12-14T00:14:46;9.00;;;5.80;;
75340;SDS011;64931;47.562;18.920;2023-12-14T00:17:12;10.00;;;5.30;;
75340;SDS011;64931;47.562;18.920;2023-12-14T00:19:37;10.80;;;6.20;;
75340;SDS011;64931;47.562;18.920;2023-12-14T00:22:03;11.90;;;6.10;;
75340;SDS011;64931;47.562;18.920;2023-12-14T00:24:28;9.80;;;6.00;;
75340;SDS011;64931;47.562;18.920;2023-12-14T00:26:54;8.90;;;5.60;;
75340;SDS011;64931;47.562;18.920;2023-12-14T00:29:19;8.40;;;5.50;;
75340;SDS011;64931;47.562;18.920;2023-12-14T00:31:44;8.70;;;5.90;;
75340;SDS011;64931;47.562;18.920;2023-12-14T00:34:10;10.30;;;7.10;;
75340;SDS011;64931;47.562;18.920;2023-12-14T00:36:35;10.00;;;7.10;;
75340;SDS011;64931;47.562;18.920;2023-12-14T00:39:01;9.30;;;5.80;;
75340;SDS011;64931;47.562;18.920;2023-12-14T00:41:26;10.70;;;6.60;;
75340;SDS011;64931;47.562;18.920;2023-12-14T00:43:52;9.20;;;6.00;;
75340;SDS011;64931;47.562;18.920;2023-12-14T00:46:17;11.80;;;7.60;;
75340;SDS011;64931;47.562;18.920;2023-12-14T00:48:43;12.50;;;8.20;;
75340;SDS011;64931;47.562;18.920;2023-12-14T00:51:08;12.80;;;7.40;;
75340;SDS011;64931;47.562;18.920;2023-12-14T00:53:34;11.40;;;7.50;;
75340;SDS011;64931;47.562;18.920;2023-12-14T00:55:59;11.30;;;7.40;;
75340;SDS011;64931;47.562;18.920;2023-12-14T00:58:24;13.60;;;7.60;;
75340;SDS011;64931;47.562;18.920;2023-12-14T01:00:50;17.30;;;10.00;;
75340;SDS011;64931;47.562;18.920;2023-12-14T01:03:15;42.70;;;20.90;;
75340;SDS011;64931;47.562;18.920;2023-12-14T01:05:41;40.90;;;19.10;;
75340;SDS011;64931;47.562;18.920;2023-12-14T01:08:06;15.70;;;8.70;;
75340;SDS011;64931;47.562;18.920;2023-12-14T01:10:32;17.90;;;10.20;;
75340;SDS011;64931;47.562;18.920;2023-12-14T01:12:58;17.80;;;9.60;;
75340;SDS011;64931;47.562;18.920;2023-12-14T01:15:24;26.20;;;14.30;;
75340;SDS011;64931;47.562;18.920;2023-12-14T01:17:49;20.10;;;11.10;;
75340;SDS011;64931;47.562;18.920;2023-12-14T01:20:14;25.80;;;14.20;;
75340;SDS011;64931;47.562;18.920;2023-12-14T01:22:40;27.20;;;14.50;;
75340;SDS011;64931;47.562;18.920;2023-12-14T01:25:05;24.10;;;12.70;;
75340;SDS011;64931;47.562;18.920;2023-12-14T01:27:31;30.20;;;16.30;;
75340;SDS011;64931;47.562;18.920;2023-12-14T01:29:56;28.20;;;15.00;;
75340;SDS011;64931;47.562;18.920;2023-12-14T01:32:22;27.30;;;15.30;;
75340;SDS011;64931;47.562;18.920;2023-12-14T01:34:47;25.70;;;13.30;;
75340;SDS011;64931;47.562;18.920;2023-12-14T01:37:13;26.30;;;14.20;;
75340;SDS011;64931;47.562;18.920;2023-12-14T01:39:38;25.50;;;13.80;;
75340;SDS011;64931;47.562;18.920;2023-12-14T01:42:04;23.60;;;12.80;;
75340;SDS011;64931;47.562;18.920;2023-12-14T01:44:29;19.90;;;10.70;;
75340;SDS011;64931;47.562;18.920;2023-12-14T01:46:55;20.50;;;11.40;;
75340;SDS011;64931;47.562;18.920;2023-12-14T01:49:20;20.10;;;10.90;;
75340;SDS011;64931;47.562;18.920;2023-12-14T01:51:46;18.10;;;10.50;;
75340;SDS011;64931;47.562;18.920;2023-12-14T01:54:12;20.30;;;10.60;;
75340;SDS011;64931;47.562;18.920;2023-12-14T01:56:37;19.80;;;10.20;;
75340;SDS011;64931;47.562;18.920;2023-12-14T01:59:03;20.20;;;11.20;;
75340;SDS011;64931;47.562;18.920;2023-12-14T02:01:39;23.90;;;12.40;;
75340;SDS011;64931;47.562;18.920;2023-12-14T02:04:09;20.30;;;9.80;;
75340;SDS011;64931;47.562;18.920;2023-12-14T02:06:35;22.90;;;11.80;;
75340;SDS011;64931;47.562;18.920;2023-12-14T02:09:01;25.40;;;13.00;;
75340;SDS011;64931;47.562;18.920;2023-12-14T02:11:26;22.70;;;10.90;;
75340;SDS011;64931;47.562;18.920;2023-12-14T02:13:52;28.20;;;15.20;;
75340;SDS011;64931;47.562;18.920;2023-12-14T02:16:17;29.80;;;14.10;;
75340;SDS011;64931;47.562;18.920;2023-12-14T02:18:43;28.80;;;14.20;;
75340;SDS011;64931;47.562;18.920;2023-12-14T02:21:09;31.40;;;15.50;;
75340;SDS011;64931;47.562;18.920;2023-12-14T02:23:35;36.30;;;20.00;;
75340;SDS011;64931;47.562;18.920;2023-12-14T02:26:00;28.60;;;14.10;;
75340;SDS011;64931;47.562;18.920;2023-12-14T02:28:26;28.70;;;14.10;;
75340;SDS011;64931;47.562;18.920;2023-12-14T02:30:51;30.00;;;15.60;;
75340;SDS011;64931;47.562;18.920;2023-12-14T02:33:17;33.20;;;15.40;;
75340;SDS011;64931;47.562;18.920;2023-12-14T02:35:42;31.70;;;14.30;;
75340;SDS011;64931;47.562;18.920;2023-12-14T02:38:08;31.60;;;17.00;;
75340;SDS011;64931;47.562;18.920;2023-12-14T02:40:33;28.30;;;14.60;;
75340;SDS011;64931;47.562;18.920;2023-12-14T02:42:59;25.30;;;13.20;;
75340;SDS011;64931;47.562;18.920;2023-12-14T02:45:24;23.80;;;13.30;;
75340;SDS011;64931;47.562;18.920;2023-12-14T02:47:50;30.00;;;15.70;;
75340;SDS011;64931;47.562;18.920;2023-12-14T02:50:17;28.10;;;14.20;;
75340;SDS011;64931;47.562;18.920;2023-12-14T02:52:42;29.70;;;15.90;;
75340;SDS011;64931;47.562;18.920;2023-12-14T02:55:08;31.30;;;15.00;;
75340;SDS011;64931;47.562;18.920;2023-12-14T02:57:33;38.90;;;17.80;;
75340;SDS011;64931;47.562;18.920;2023-12-14T02:59:59;35.20;;;18.10;;
75340;SDS011;64931;47.562;18.920;2023-12-14T03:02:24;27.20;;;13.80;;
75340;SDS011;64931;47.562;18.920;2023-12-14T03:04:50;28.80;;;13.10;;
75340;SDS011;64931;47.562;18.920;2023-12-14T03:07:15;44.50;;;17.00;;
75340;SDS011;64931;47.562;18.920;2023-12-14T03:09:41;35.60;;;15.60;;
75340;SDS011;64931;47.562;18.920;2023-12-14T03:12:09;32.50;;;14.20;;
75340;SDS011;64931;47.562;18.920;2023-12-14T03:14:35;29.00;;;13.80;;
75340;SDS011;64931;47.562;18.920;2023-12-14T03:17:00;29.30;;;13.60;;
75340;SDS011;64931;47.562;18.920;2023-12-14T03:19:26;24.10;;;12.00;;
75340;SDS011;64931;47.562;18.920;2023-12-14T03:21:51;28.60;;;13.90;;
75340;SDS011;64931;47.562;18.920;2023-12-14T03:24:17;26.40;;;12.20;;
75340;SDS011;64931;47.562;18.920;2023-12-14T03:26:45;36.20;;;16.70;;
75340;SDS011;64931;47.562;18.920;2023-12-14T03:29:10;45.60;;;16.90;;
75340;SDS011;64931;47.562;18.920;2023-12-14T03:31:36;57.30;;;17.60;;
75340;SDS011;64931;47.562;18.920;2023-12-14T03:34:01;53.40;;;17.20;;
75340;SDS011;64931;47.562;18.920;2023-12-14T03:36:27;48.90;;;15.00;;
75340;SDS011;64931;47.562;18.920;2023-12-14T03:38:53;46.30;;;15.60;;
75340;SDS011;64931;47.562;18.920;2023-12-14T03:41:19;70.60;;;17.70;;
75340;SDS011;64931;47.562;18.920;2023-12-14T03:43:44;48.10;;;14.80;;
75340;SDS011;64931;47.562;18.920;2023-12-14T03:46:10;67.00;;;15.30;;
75340;SDS011;64931;47.562;18.920;2023-12-14T03:48:36;100.90;;;17.00;;
75340;SDS011;64931;47.562;18.920;2023-12-14T03:51:04;195.60;;;22.40;;
75340;SDS011;64931;47.562;18.920;2023-12-14T03:53:30;129.10;;;21.20;;
75340;SDS011;64931;47.562;18.920;2023-12-14T03:55:59;34.10;;;13.30;;
75340;SDS011;64931;47.562;18.920;2023-12-14T03:58:25;137.50;;;20.10;;
75340;SDS011;64931;47.562;18.920;2023-12-14T04:00:51;36.30;;;13.80;;
75340;SDS011;64931;47.562;18.920;2023-12-14T04:03:17;174.70;;;23.30;;
75340;SDS011;64931;47.562;18.920;2023-12-14T04:05:45;99.10;;;18.00;;
75340;SDS011;64931;47.562;18.920;2023-12-14T04:08:11;138.50;;;20.20;;
75340;SDS011;64931;47.562;18.920;2023-12-14T04:10:36;106.80;;;19.00;;
75340;SDS011;64931;47.562;18.920;2023-12-14T04:13:02;62.10;;;15.40;;
75340;SDS011;64931;47.562;18.920;2023-12-14T04:15:27;86.10;;;14.50;;
75340;SDS011;64931;47.562;18.920;2023-12-14T04:17:53;105.80;;;17.80;;
75340;SDS011;64931;47.562;18.920;2023-12-14T04:20:18;151.20;;;19.60;;
75340;SDS011;64931;47.562;18.920;2023-12-14T04:22:44;239.30;;;25.30;;
75340;SDS011;64931;47.562;18.920;2023-12-14T04:25:10;163.70;;;22.20;;
75340;SDS011;64931;47.562;18.920;2023-12-14T04:27:35;94.00;;;17.10;;
75340;SDS011;64931;47.562;18.920;2023-12-14T04:30:01;285.00;;;23.80;;
75340;SDS011;64931;47.562;18.920;2023-12-14T04:32:26;135.70;;;18.40;;
75340;SDS011;64931;47.562;18.920;2023-12-14T04:34:52;110.20;;;17.10;;
75340;SDS011;64931;47.562;18.920;2023-12-14T04:37:17;308.90;;;27.80;;
75340;SDS011;64931;47.562;18.920;2023-12-14T04:39:43;139.40;;;16.30;;
75340;SDS011;64931;47.562;18.920;2023-12-14T04:42:08;282.80;;;20.50;;
75340;SDS011;64931;47.562;18.920;2023-12-14T04:44:34;65.70;;;14.40;;
75340;SDS011;64931;47.562;18.920;2023-12-14T04:46:59;455.60;;;30.00;;
75340;SDS011;64931;47.562;18.920;2023-12-14T04:49:24;104.60;;;15.10;;
75340;SDS011;64931;47.562;18.920;2023-12-14T04:51:50;79.70;;;16.70;;
75340;SDS011;64931;47.562;18.920;2023-12-14T04:54:15;110.60;;;14.90;;
75340;SDS011;64931;47.562;18.920;2023-12-14T04:56:41;133.80;;;17.10;;
75340;SDS011;64931;47.562;18.920;2023-12-14T04:59:09;193.80;;;18.80;;
75340;SDS011;64931;47.562;18.920;2023-12-14T05:01:35;157.20;;;20.40;;
75340;SDS011;64931;47.562;18.920;2023-12-14T05:04:00;79.70;;;15.80;;
75340;SDS011;64931;47.562;18.920;2023-12-14T05:06:25;255.10;;;26.40;;
75340;SDS011;64931;47.562;18.920;2023-12-14T05:08:51;274.50;;;26.70;;
75340;SDS011;64931;47.562;18.920;2023-12-14T05:11:16;67.00;;;16.10;;
75340;SDS011;64931;47.562;18.920;2023-12-14T05:13:42;116.70;;;19.00;;
75340;SDS011;64931;47.562;18.920;2023-12-14T05:16:12;136.70;;;20.70;;
75340;SDS011;64931;47.562;18.920;2023-12-14T05:18:40;310.90;;;28.10;;
75340;SDS011;64931;47.562;18.920;2023-12-14T05:21:06;85.80;;;18.30;;
75340;SDS011;64931;47.562;18.920;2023-12-14T05:23:31;126.90;;;23.60;;
75340;SDS011;64931;47.562;18.920;2023-12-14T05:25:57;272.10;;;26.70;;
75340;SDS011;64931;47.562;18.920;2023-12-14T05:28:23;271.70;;;29.40;;
75340;SDS011;64931;47.562;18.920;2023-12-14T05:30:48;106.40;;;20.90;;
75340;SDS011;64931;47.562;18.920;2023-12-14T05:33:14;139.20;;;23.70;;
75340;SDS011;64931;47.562;18.920;2023-12-14T05:35:39;190.70;;;25.00;;
75340;SDS011;64931;47.562;18.920;2023-12-14T05:38:05;75.00;;;18.50;;
75340;SDS011;64931;47.562;18.920;2023-12-14T05:40:30;155.90;;;25.20;;
75340;SDS011;64931;47.562;18.920;2023-12-14T05:42:56;80.50;;;20.50;;
75340;SDS011;64931;47.562;18.920;2023-12-14T05:45:22;83.70;;;21.40;;
75340;SDS011;64931;47.562;18.920;2023-12-14T05:47:49;175.10;;;26.70;;
75340;SDS011;64931;47.562;18.920;2023-12-14T05:50:16;73.00;;;18.80;;
75340;SDS011;64931;47.562;18.920;2023-12-14T05:52:41;273.50;;;30.80;;
75340;SDS011;64931;47.562;18.920;2023-12-14T05:55:07;56.80;;;19.70;;
75340;SDS011;64931;47.562;18.920;2023-12-14T06:00:00;53.80;;;19.80;;
75340;SDS011;64931;47.562;18.920;2023-12-14T06:02:26;54.60;;;21.40;;
75340;SDS011;64931;47.562;18.920;2023-12-14T06:04:52;53.40;;;19.70;;
75340;SDS011;64931;47.562;18.920;2023-12-14T06:07:18;62.10;;;21.90;;
75340;SDS011;64931;47.562;18.920;2023-12-14T06:09:43;60.50;;;20.90;;
75340;SDS011;64931;47.562;18.920;2023-12-14T06:12:09;56.60;;;20.60;;
75340;SDS011;64931;47.562;18.920;2023-12-14T06:14:34;60.70;;;21.20;;
75340;SDS011;64931;47.562;18.920;2023-12-14T06:17:00;54.00;;;20.70;;
75340;SDS011;64931;47.562;18.920;2023-12-14T06:19:25;53.00;;;21.30;;
75340;SDS011;64931;47.562;18.920;2023-12-14T06:21:51;52.20;;;19.80;;
75340;SDS011;64931;47.562;18.920;2023-12-14T06:24:17;47.50;;;19.10;;
75340;SDS011;64931;47.562;18.920;2023-12-14T06:26:43;55.80;;;22.50;;
75340;SDS011;64931;47.562;18.920;2023-12-14T06:29:09;47.30;;;20.30;;
75340;SDS011;64931;47.562;18.920;2023-12-14T06:31:35;47.20;;;19.70;;
75340;SDS011;64931;47.562;18.920;2023-12-14T06:34:01;49.00;;;19.50;;
75340;SDS011;64931;47.562;18.920;2023-12-14T06:36:29;63.80;;;27.10;;
75340;SDS011;64931;47.562;18.920;2023-12-14T06:38:55;48.00;;;21.00;;
75340;SDS011;64931;47.562;18.920;2023-12-14T06:41:21;61.60;;;25.10;;
75340;SDS011;64931;47.562;18.920;2023-12-14T06:43:47;65.10;;;24.90;;
75340;SDS011;64931;47.562;18.920;2023-12-14T06:46:13;47.60;;;20.10;;
75340;SDS011;64931;47.562;18.920;2023-12-14T06:48:38;55.60;;;21.50;;
75340;SDS011;64931;47.562;18.920;2023-12-14T06:51:04;70.30;;;23.60;;
75340;SDS011;64931;47.562;18.920;2023-12-14T06:53:29;48.70;;;20.00;;
75340;SDS011;64931;47.562;18.920;2023-12-14T06:55:55;61.60;;;25.00;;
75340;SDS011;64931;47.562;18.920;2023-12-14T06:58:20;49.50;;;20.70;;
75340;SDS011;64931;47.562;18.920;2023-12-14T07:00:46;65.80;;;26.00;;
75340;SDS011;64931;47.562;18.920;2023-12-14T07:03:12;68.00;;;27.80;;
75340;SDS011;64931;47.562;18.920;2023-12-14T07:05:38;58.00;;;22.30;;
75340;SDS011;64931;47.562;18.920;2023-12-14T07:08:04;58.40;;;21.70;;
75340;SDS011;64931;47.562;18.920;2023-12-14T07:10:29;74.60;;;28.80;;
75340;SDS011;64931;47.562;18.920;2023-12-14T07:12:55;70.60;;;25.70;;
75340;SDS011;64931;47.562;18.920;2023-12-14T07:15:20;54.50;;;23.10;;
75340;SDS011;64931;47.562;18.920;2023-12-14T07:17:45;51.90;;;22.10;;
75340;SDS011;64931;47.562;18.920;2023-12-14T07:20:11;50.30;;;21.40;;
75340;SDS011;64931;47.562;18.920;2023-12-14T07:22:37;39.30;;;19.80;;
75340;SDS011;64931;47.562;18.920;2023-12-14T07:25:03;49.40;;;22.00;;
75340;SDS011;64931;47.562;18.920;2023-12-14T07:27:29;50.20;;;21.70;;
75340;SDS011;64931;47.562;18.920;2023-12-14T07:29:54;52.30;;;26.70;;
75340;SDS011;64931;47.562;18.920;2023-12-14T07:32:20;52.80;;;23.50;;
75340;SDS011;64931;47.562;18.920;2023-12-14T07:34:46;45.70;;;20.90;;
75340;SDS011;64931;47.562;18.920;2023-12-14T07:37:12;50.40;;;21.90;;
75340;SDS011;64931;47.562;18.920;2023-12-14T07:39:38;56.00;;;27.40;;
75340;SDS011;64931;47.562;18.920;2023-12-14T07:42:03;52.60;;;24.70;;
75340;SDS011;64931;47.562;18.920;2023-12-14T07:44:29;55.80;;;27.90;;
75340;SDS011;64931;47.562;18.920;2023-12-14T07:46:55;48.40;;;23.10;;
75340;SDS011;64931;47.562;18.920;2023-12-14T07:49:21;44.50;;;23.70;;
75340;SDS011;64931;47.562;18.920;2023-12-14T07:51:48;45.00;;;21.00;;
75340;SDS011;64931;47.562;18.920;2023-12-14T07:54:14;52.20;;;29.10;;
75340;SDS011;64931;47.562;18.920;2023-12-14T07:56:40;47.50;;;24.10;;
75340;SDS011;64931;47.562;18.920;2023-12-14T07:59:06;43.90;;;21.50;;
75340;SDS011;64931;47.562;18.920;2023-12-14T08:01:33;44.70;;;22.30;;
75340;SDS011;64931;47.562;18.920;2023-12-14T08:03:59;46.50;;;24.20;;
75340;SDS011;64931;47.562;18.920;2023-12-14T08:06:24;45.80;;;21.60;;
75340;SDS011;64931;47.562;18.920;2023-12-14T08:08:50;48.80;;;22.70;;
75340;SDS011;64931;47.562;18.920;2023-12-14T08:11:16;47.80;;;22.90;;
75340;SDS011;64931;47.562;18.920;2023-12-14T08:13:42;47.10;;;23.10;;
75340;SDS011;64931;47.562;18.920;2023-12-14T08:16:07;45.70;;;21.80;;
75340;SDS011;64931;47.562;18.920;2023-12-14T08:18:33;47.20;;;23.30;;
75340;SDS011;64931;47.562;18.920;2023-12-14T08:20:59;44.60;;;21.50;;
75340;SDS011;64931;47.562;18.920;2023-12-14T08:23:24;46.90;;;22.90;;
75340;SDS011;64931;47.562;18.920;2023-12-14T08:25:53;40.70;;;20.40;;
75340;SDS011;64931;47.562;18.920;2023-12-14T08:28:25;44.10;;;21.20;;
75340;SDS011;64931;47.562;18.920;2023-12-14T08:30:50;43.30;;;21.00;;
75340;SDS011;64931;47.562;18.920;2023-12-14T08:33:16;45.40;;;22.10;;
75340;SDS011;64931;47.562;18.920;2023-12-14T08:35:42;45.90;;;22.40;;
75340;SDS011;64931;47.562;18.920;2023-12-14T08:38:08;50.90;;;24.30;;
75340;SDS011;64931;47.562;18.920;2023-12-14T08:40:33;47.40;;;23.20;;
75340;SDS011;64931;47.562;18.920;2023-12-14T08:42:59;48.30;;;24.60;;
75340;SDS011;64931;47.562;18.920;2023-12-14T08:45:24;51.00;;;26.90;;
75340;SDS011;64931;47.562;18.920;2023-12-14T08:47:50;41.20;;;19.80;;
75340;SDS011;64931;47.562;18.920;2023-12-14T08:50:15;48.60;;;24.90;;
75340;SDS011;64931;47.562;18.920;2023-12-14T08:52:41;51.10;;;25.30;;
75340;SDS011;64931;47.562;18.920;2023-12-14T08:55:07;42.10;;;20.10;;
75340;SDS011;64931;47.562;18.920;2023-12-14T08:57:34;43.60;;;22.60;;
75340;SDS011;64931;47.562;18.920;2023-12-14T09:00:00;48.00;;;25.40;;
75340;SDS011;64931;47.562;18.920;2023-12-14T09:02:26;42.50;;;21.90;;
75340;SDS011;64931;47.562;18.920;2023-12-14T09:04:51;44.20;;;22.70;;
75340;SDS011;64931;47.562;18.920;2023-12-14T09:07:17;45.20;;;23.90;;
75340;SDS011;64931;47.562;18.920;2023-12-14T09:09:42;42.20;;;23.20;;
75340;SDS011;64931;47.562;18.920;2023-12-14T09:12:09;44.40;;;25.30;;
75340;SDS011;64931;47.562;18.920;2023-12-14T09:14:34;33.70;;;17.40;;
75340;SDS011;64931;47.562;18.920;2023-12-14T09:17:01;31.00;;;17.50;;
75340;SDS011;64931;47.562;18.920;2023-12-14T09:19:28;36.40;;;19.80;;
75340;SDS011;64931;47.562;18.920;2023-12-14T09:21:54;38.80;;;20.60;;
75340;SDS011;64931;47.562;18.920;2023-12-14T09:24:20;36.50;;;19.50;;
75340;SDS011;64931;47.562;18.920;2023-12-14T09:26:45;38.80;;;22.30;;
75340;SDS011;64931;47.562;18.920;2023-12-14T09:29:13;36.70;;;22.30;;
75340;SDS011;64931;47.562;18.920;2023-12-14T09:31:43;33.10;;;17.20;;
75340;SDS011;64931;47.562;18.920;2023-12-14T09:34:10;37.70;;;20.70;;
75340;SDS011;64931;47.562;18.920;2023-12-14T09:36:36;36.40;;;20.20;;
75340;SDS011;64931;47.562;18.920;2023-12-14T09:39:02;39.50;;;22.00;;
75340;SDS011;64931;47.562;18.920;2023-12-14T09:41:28;31.50;;;18.00;;
75340;SDS011;64931;47.562;18.920;2023-12-14T09:43:53;36.10;;;19.70;;
75340;SDS011;64931;47.562;18.920;2023-12-14T09:46:20;33.20;;;18.80;;
75340;SDS011;64931;47.562;18.920;2023-12-14T09:48:47;33.70;;;19.50;;
75340;SDS011;64931;47.562;18.920;2023-12-14T09:51:13;36.10;;;20.00;;
75340;SDS011;64931;47.562;18.920;2023-12-14T09:53:38;35.40;;;20.50;;
75340;SDS011;64931;47.562;18.920;2023-12-14T09:56:04;26.70;;;14.90;;
75340;SDS011;64931;47.562;18.920;2023-12-14T09:58:32;31.20;;;18.50;;
75340;SDS011;64931;47.562;18.920;2023-12-14T10:00:58;28.40;;;16.70;;
75340;SDS011;64931;47.562;18.920;2023-12-14T10:03:26;27.90;;;15.70;;
75340;SDS011;64931;47.562;18.920;2023-12-14T10:05:57;30.10;;;18.50;;
75340;SDS011;64931;47.562;18.920;2023-12-14T10:08:23;28.90;;;17.30;;
75340;SDS011;64931;47.562;18.920;2023-12-14T10:10:50;28.30;;;17.10;;
75340;SDS011;64931;47.562;18.920;2023-12-14T10:13:18;27.50;;;17.60;;
75340;SDS011;64931;47.562;18.920;2023-12-14T10:15:45;27.10;;;17.00;;
75340;SDS011;64931;47.562;18.920;2023-12-14T10:18:13;29.10;;;16.80;;
75340;SDS011;64931;47.562;18.920;2023-12-14T10:20:47;30.00;;;21.20;;
75340;SDS011;64931;47.562;18.920;2023-12-14T10:23:12;29.50;;;17.50;;
75340;SDS011;64931;47.562;18.920;2023-12-14T10:25:38;31.00;;;18.50;;
75340;SDS011;64931;47.562;18.920;2023-12-14T10:28:03;31.20;;;20.50;;
75340;SDS011;64931;47.562;18.920;2023-12-14T10:30:29;28.90;;;19.50;;
75340;SDS011;64931;47.562;18.920;2023-12-14T10:32:56;29.90;;;18.50;;
75340;SDS011;64931;47.562;18.920;2023-12-14T10:35:22;31.80;;;20.90;;
75340;SDS011;64931;47.562;18.920;2023-12-14T10:37:51;33.40;;;18.90;;
75340;SDS011;64931;47.562;18.920;2023-12-14T10:40:17;34.20;;;24.80;;
75340;SDS011;64931;47.562;18.920;2023-12-14T10:42:43;24.90;;;15.60;;
75340;SDS011;64931;47.562;18.920;2023-12-14T10:45:12;34.00;;;21.50;;
75340;SDS011;64931;47.562;18.920;2023-12-14T10:47:44;34.60;;;21.30;;
75340;SDS011;64931;47.562;18.920;2023-12-14T10:50:11;34.90;;;23.50;;
75340;SDS011;64931;47.562;18.920;2023-12-14T10:52:38;33.90;;;19.80;;
75340;SDS011;64931;47.562;18.920;2023-12-14T10:55:06;31.30;;;20.30;;
75340;SDS011;64931;47.562;18.920;2023-12-14T10:57:33;30.00;;;17.60;;
75340;SDS011;64931;47.562;18.920;2023-12-14T10:59:59;30.70;;;18.70;;
75340;SDS011;64931;47.562;18.920;2023-12-14T11:02:26;28.30;;;17.40;;
75340;SDS011;64931;47.562;18.920;2023-12-14T11:04:55;35.40;;;21.50;;
75340;SDS011;64931;47.562;18.920;2023-12-14T11:10:12;32.80;;;19.80;;
75340;SDS011;64931;47.562;18.920;2023-12-14T11:12:50;35.40;;;21.40;;
75340;SDS011;64931;47.562;18.920;2023-12-14T11:18:18;32.30;;;18.10;;
75340;SDS011;64931;47.562;18.920;2023-12-14T11:23:15;39.10;;;23.50;;
75340;SDS011;64931;47.562;18.920;2023-12-14T11:25:49;33.00;;;20.40;;
75340;SDS011;64931;47.562;18.920;2023-12-14T11:28:17;32.50;;;19.90;;
75340;SDS011;64931;47.562;18.920;2023-12-14T11:30:45;31.20;;;18.10;;
75340;SDS011;64931;47.562;18.920;2023-12-14T11:33:12;36.30;;;23.40;;
75340;SDS011;64931;47.562;18.920;2023-12-14T11:35:38;36.00;;;20.10;;
75340;SDS011;64931;47.562;18.920;2023-12-14T11:38:04;35.80;;;24.60;;
75340;SDS011;64931;47.562;18.920;2023-12-14T11:40:36;36.10;;;20.90;;
75340;SDS011;64931;47.562;18.920;2023-12-14T11:43:02;33.50;;;21.20;;
75340;SDS011;64931;47.562;18.920;2023-12-14T11:45:33;34.40;;;20.20;;
75340;SDS011;64931;47.562;18.920;2023-12-14T11:48:05;33.70;;;19.70;;
75340;SDS011;64931;47.562;18.920;2023-12-14T11:50:32;34.70;;;22.10;;
75340;SDS011;64931;47.562;18.920;2023-12-14T11:53:01;33.80;;;22.50;;
75340;SDS011;64931;47.562;18.920;2023-12-14T11:55:28;34.50;;;22.10;;
75340;SDS011;64931;47.562;18.920;2023-12-14T11:57:55;30.50;;;19.40;;
75340;SDS011;64931;47.562;18.920;2023-12-14T12:00:27;36.90;;;26.50;;
75340;SDS011;64931;47.562;18.920;2023-12-14T12:05:46;34.00;;;21.30;;
75340;SDS011;64931;47.562;18.920;2023-12-14T12:08:12;30.60;;;19.00;;
75340;SDS011;64931;47.562;18.920;2023-12-14T12:10:40;28.70;;;17.30;;
75340;SDS011;64931;47.562;18.920;2023-12-14T12:13:06;31.60;;;19.10;;
75340;SDS011;64931;47.562;18.920;2023-12-14T12:15:42;31.60;;;19.50;;
75340;SDS011;64931;47.562;18.920;2023-12-14T12:18:09;28.30;;;18.30;;
75340;SDS011;64931;47.562;18.920;2023-12-14T12:20:35;31.10;;;20.10;;
75340;SDS011;64931;47.562;18.920;2023-12-14T12:23:01;29.40;;;19.60;;
75340;SDS011;64931;47.562;18.920;2023-12-14T12:25:28;31.90;;;19.90;;
75340;SDS011;64931;47.562;18.920;2023-12-14T12:27:56;29.50;;;19.00;;
75340;SDS011;64931;47.562;18.920;2023-12-14T12:30:23;28.60;;;18.00;;
75340;SDS011;64931;47.562;18.920;2023-12-14T12:32:49;31.50;;;20.10;;
75340;SDS011;64931;47.562;18.920;2023-12-14T12:35:17;30.20;;;18.10;;
75340;SDS011;64931;47.562;18.920;2023-12-14T12:37:43;29.00;;;19.00;;
75340;SDS011;64931;47.562;18.920;2023-12-14T12:40:09;29.90;;;18.90;;
75340;SDS011;64931;47.562;18.920;2023-12-14T12:42:35;31.80;;;18.60;;
75340;SDS011;64931;47.562;18.920;2023-12-14T12:45:00;28.20;;;17.80;;
75340;SDS011;64931;47.562;18.920;2023-12-14T12:47:26;31.50;;;21.20;;
75340;SDS011;64931;47.562;18.920;2023-12-14T12:49:52;32.00;;;23.20;;
75340;SDS011;64931;47.562;18.920;2023-12-14T12:52:17;25.60;;;16.40;;
75340;SDS011;64931;47.562;18.920;2023-12-14T12:54:43;33.70;;;23.90;;
75340;SDS011;64931;47.562;18.920;2023-12-14T12:57:08;29.10;;;17.40;;
75340;SDS011;64931;47.562;18.920;2023-12-14T12:59:34;31.60;;;22.10;;
75340;SDS011;64931;47.562;18.920;2023-12-14T13:01:59;33.50;;;22.60;;
75340;SDS011;64931;47.562;18.920;2023-12-14T13:04:24;31.30;;;20.50;;
75340;SDS011;64931;47.562;18.920;2023-12-14T13:06:51;30.80;;;22.10;;
75340;SDS011;64931;47.562;18.920;2023-12-14T13:09:17;29.50;;;19.30;;
75340;SDS011;64931;47.562;18.920;2023-12-14T13:11:44;28.10;;;18.00;;
75340;SDS011;64931;47.562;18.920;2023-12-14T13:14:10;27.10;;;18.20;;
75340;SDS011;64931;47.562;18.920;2023-12-14T13:16:36;31.30;;;20.00;;
75340;SDS011;64931;47.562;18.920;2023-12-14T13:19:02;31.80;;;20.30;;
75340;SDS011;64931;47.562;18.920;2023-12-14T13:21:29;32.30;;;23.60;;
75340;SDS011;64931;47.562;18.920;2023-12-14T13:23:55;30.90;;;21.50;;
75340;SDS011;64931;47.562;18.920;2023-12-14T13:26:24;29.60;;;22.20;;
75340;SDS011;64931;47.562;18.920;2023-12-14T13:28:52;29.40;;;20.60;;
75340;SDS011;64931;47.562;18.920;2023-12-14T13:31:17;28.50;;;19.30;;
75340;SDS011;64931;47.562;18.920;2023-12-14T13:33:43;29.50;;;20.60;;
75340;SDS011;64931;47.562;18.920;2023-12-14T13:36:11;27.50;;;20.50;;
75340;SDS011;64931;47.562;18.920;2023-12-14T13:38:37;25.60;;;16.80;;
75340;SDS011;64931;47.562;18.920;2023-12-14T13:41:02;28.10;;;19.20;;
75340;SDS011;64931;47.562;18.920;2023-12-14T13:43:28;26.60;;;18.70;;
75340;SDS011;64931;47.562;18.920;2023-12-14T13:45:54;28.40;;;18.10;;
75340;SDS011;64931;47.562;18.920;2023-12-14T13:48:26;24.40;;;16.40;;
75340;SDS011;64931;47.562;18.920;2023-12-14T13:50:55;27.60;;;19.30;;
75340;SDS011;64931;47.562;18.920;2023-12-14T13:53:22;23.30;;;16.40;;
75340;SDS011;64931;47.562;18.920;2023-12-14T13:55:48;23.20;;;14.20;;
75340;SDS011;64931;47.562;18.920;2023-12-14T13:58:14;21.90;;;15.40;;
75340;SDS011;64931;47.562;18.920;2023-12-14T14:00:40;23.90;;;15.00;;
75340;SDS011;64931;47.562;18.920;2023-12-14T14:03:05;19.50;;;13.00;;
75340;SDS011;64931;47.562;18.920;2023-12-14T14:05:31;21.80;;;13.60;;
75340;SDS011;64931;47.562;18.920;2023-12-14T14:07:57;16.60;;;10.90;;
75340;SDS011;64931;47.562;18.920;2023-12-14T14:10:23;20.20;;;13.00;;
75340;SDS011;64931;47.562;18.920;2023-12-14T14:12:48;22.60;;;13.20;;
75340;SDS011;64931;47.562;18.920;2023-12-14T14:15:14;21.20;;;14.20;;